createdAt,value
2018-11-13T00:01:32.678Z,9.90
2018-11-13T00:04:00.461Z,9.90
2018-11-13T00:06:31.005Z,9.90
2018-11-13T00:08:59.793Z,9.80
2018-11-13T00:11:27.679Z,9.80
2018-11-13T00:13:55.538Z,9.80
2018-11-13T00:16:23.402Z,9.80
2018-11-13T00:18:51.247Z,9.80
2018-11-13T00:21:18.979Z,9.80
2018-11-13T00:23:46.740Z,9.80
2018-11-13T00:28:42.268Z,9.80
2018-11-13T00:31:10.079Z,9.70
2018-11-13T00:33:37.911Z,9.80
2018-11-13T00:38:34.483Z,9.80
2018-11-13T00:41:02.262Z,9.80
2018-11-13T00:43:30.038Z,9.70
2018-11-13T00:45:57.878Z,9.70
2018-11-13T00:50:54.231Z,9.70
2018-11-13T00:55:49.659Z,9.60
2018-11-13T01:05:40.458Z,9.60
2018-11-13T01:08:08.184Z,9.70
2018-11-13T01:10:36.022Z,9.70
2018-11-13T01:13:03.925Z,9.70
2018-11-13T01:15:31.709Z,9.70
2018-11-13T01:17:59.481Z,9.70
2018-11-13T01:20:27.238Z,9.70
2018-11-13T01:22:54.991Z,9.70
2018-11-13T01:25:22.735Z,9.70
2018-11-13T01:37:42.336Z,9.60
2018-11-13T01:42:40.632Z,9.50
2018-11-13T01:45:10.045Z,9.60
2018-11-13T01:47:37.838Z,9.50
2018-11-13T01:50:05.768Z,9.50
2018-11-13T01:55:01.811Z,9.50
2018-11-13T01:57:29.627Z,9.60
2018-11-13T01:59:57.442Z,9.60
2018-11-13T02:02:25.255Z,9.60
2018-11-13T02:04:53.100Z,9.60
2018-11-13T02:07:20.897Z,9.60
2018-11-13T02:09:48.724Z,9.60
2018-11-13T02:14:44.261Z,9.60
2018-11-13T02:19:39.770Z,9.60
2018-11-13T02:22:07.600Z,9.60
2018-11-13T02:24:37.169Z,9.60
2018-11-13T02:27:05.527Z,9.60
2018-11-13T02:29:33.427Z,9.60
2018-11-13T02:32:01.299Z,9.60
2018-11-13T02:34:29.144Z,9.60
2018-11-13T02:36:57.096Z,9.60
2018-11-13T02:39:24.963Z,9.60
2018-11-13T02:41:52.813Z,9.60
2018-11-13T02:44:20.699Z,9.70
2018-11-13T02:46:48.495Z,9.70
2018-11-13T02:49:16.316Z,9.70
2018-11-13T02:51:44.088Z,9.70
2018-11-13T02:54:11.935Z,9.70
2018-11-13T02:56:39.717Z,9.70
2018-11-13T02:59:07.546Z,9.80
2018-11-13T03:01:35.321Z,9.80
2018-11-13T03:04:03.123Z,9.80
2018-11-13T03:06:31.691Z,9.70
2018-11-13T03:08:59.464Z,9.70
2018-11-13T03:11:27.334Z,9.60
2018-11-13T03:13:55.310Z,9.60
2018-11-13T03:16:23.030Z,9.60
2018-11-13T03:18:50.840Z,9.60
2018-11-13T03:21:18.685Z,9.60
2018-11-13T03:23:46.496Z,9.60
2018-11-13T03:31:09.795Z,9.70
2018-11-13T03:33:37.542Z,9.70
2018-11-13T03:36:05.678Z,9.80
2018-11-13T03:38:33.482Z,9.80
2018-11-13T03:41:01.278Z,9.90
2018-11-13T03:43:29.073Z,9.90
2018-11-13T03:45:56.902Z,10.00
2018-11-13T03:50:52.244Z,10.10
2018-11-13T03:53:19.988Z,10.10
2018-11-13T03:55:47.740Z,10.20
2018-11-13T03:58:15.510Z,10.20
2018-11-13T04:00:43.277Z,10.20
2018-11-13T04:03:11.053Z,10.30
2018-11-13T04:05:38.837Z,10.30
2018-11-13T04:10:34.249Z,10.40
2018-11-13T04:13:02.069Z,10.40
2018-11-13T04:15:29.783Z,10.40
2018-11-13T04:17:57.533Z,10.40
2018-11-13T04:20:25.265Z,10.40
2018-11-13T04:25:20.694Z,10.40
2018-11-13T04:27:48.457Z,10.40
2018-11-13T04:32:45.266Z,10.40
2018-11-13T04:37:41.734Z,10.30
2018-11-13T04:40:19.928Z,10.30
2018-11-13T04:42:49.939Z,10.20
2018-11-13T04:47:47.439Z,10.20
2018-11-13T04:55:12.123Z,10.30
2018-11-13T04:57:40.977Z,10.30
2018-11-13T05:00:11.682Z,10.30
2018-11-13T05:02:40.334Z,10.30
2018-11-13T05:05:09.145Z,10.30
2018-11-13T05:07:37.063Z,10.20
2018-11-13T05:10:06.645Z,10.20
2018-11-13T05:12:38.097Z,10.20
2018-11-13T05:17:33.716Z,10.10
2018-11-13T05:20:01.608Z,10.20
2018-11-13T05:22:29.382Z,10.20
2018-11-13T05:24:57.131Z,10.10
2018-11-13T05:27:24.947Z,10.10
2018-11-13T05:29:52.723Z,10.20
2018-11-13T05:32:20.434Z,10.10
2018-11-13T05:34:48.142Z,10.10
2018-11-13T05:37:15.880Z,10.10
2018-11-13T05:39:43.564Z,10.10
2018-11-13T05:42:11.293Z,10.00
2018-11-13T05:44:39.021Z,10.00
2018-11-13T05:47:06.914Z,10.00
2018-11-13T05:52:02.333Z,10.00
2018-11-13T05:54:30.079Z,9.90
2018-11-13T05:56:57.987Z,9.90
2018-11-13T05:59:25.776Z,9.90
2018-11-13T06:01:53.574Z,9.80
2018-11-13T06:04:21.647Z,9.80
2018-11-13T06:06:49.424Z,9.80
2018-11-13T06:09:17.108Z,9.60
2018-11-13T06:14:13.211Z,9.80
2018-11-13T06:16:41.034Z,9.80
2018-11-13T06:21:36.497Z,9.80
2018-11-13T06:24:04.761Z,9.80
2018-11-13T06:29:00.344Z,9.80
2018-11-13T06:31:28.185Z,9.90
2018-11-13T06:33:55.924Z,10.00
2018-11-13T06:36:23.690Z,10.00
2018-11-13T06:38:51.499Z,10.00
2018-11-13T06:41:19.170Z,10.00
2018-11-13T06:43:47.064Z,10.10
2018-11-13T06:48:42.706Z,10.20
2018-11-13T06:51:10.453Z,10.30
2018-11-13T06:56:11.614Z,10.40
2018-11-13T06:58:41.198Z,10.40
2018-11-13T07:01:09.033Z,10.50
2018-11-13T07:03:37.005Z,10.60
2018-11-13T07:06:04.908Z,10.60
2018-11-13T07:08:32.678Z,10.70
2018-11-13T07:11:00.539Z,10.70
2018-11-13T07:13:28.313Z,10.70
2018-11-13T07:15:56.162Z,10.70
2018-11-13T07:20:51.593Z,10.80
2018-11-13T07:23:19.437Z,10.80
2018-11-13T07:30:42.528Z,10.90
2018-11-13T07:35:37.964Z,11.00
2018-11-13T07:47:56.625Z,11.10
2018-11-13T07:50:24.602Z,11.10
2018-11-13T07:52:52.513Z,11.10
2018-11-13T07:55:20.595Z,11.10
2018-11-13T08:00:19.543Z,11.10
2018-11-13T08:02:48.834Z,11.10
2018-11-13T08:05:17.312Z,11.00
2018-11-13T08:07:45.671Z,11.00
2018-11-13T08:10:14.011Z,10.90
2018-11-13T08:20:09.371Z,11.00
2018-11-13T08:22:37.669Z,11.10
2018-11-13T08:25:07.388Z,11.20
2018-11-13T08:27:35.375Z,11.40
2018-11-13T08:32:31.050Z,12.20
2018-11-13T08:34:59.140Z,12.60
2018-11-13T08:37:26.974Z,12.60
2018-11-13T08:39:54.763Z,12.50
2018-11-13T08:42:22.494Z,12.30
2018-11-13T08:44:50.241Z,11.90
2018-11-13T08:47:17.970Z,11.80
2018-11-13T08:49:45.774Z,11.80
2018-11-13T08:54:41.155Z,11.80
2018-11-13T08:59:36.622Z,11.80
2018-11-13T09:02:04.731Z,11.80
2018-11-13T09:04:32.498Z,11.70
2018-11-13T09:07:00.346Z,11.80
2018-11-13T09:09:28.213Z,11.80
2018-11-13T09:16:51.983Z,12.00
2018-11-13T09:24:15.331Z,12.00
2018-11-13T09:26:43.167Z,12.00
2018-11-13T09:29:11.793Z,12.20
2018-11-13T09:31:39.655Z,12.80
2018-11-13T09:34:07.510Z,13.50
2018-11-13T09:36:35.272Z,13.90
2018-11-13T09:39:04.617Z,13.70
2018-11-13T09:41:32.725Z,13.40
2018-11-13T09:46:28.231Z,12.70
2018-11-13T09:48:55.879Z,12.50
2018-11-13T09:53:52.412Z,13.20
2018-11-13T09:56:20.248Z,13.80
2018-11-13T09:58:48.484Z,14.00
2018-11-13T10:03:44.727Z,13.40
2018-11-13T10:06:12.137Z,13.50
2018-11-13T10:08:40.680Z,13.30
2018-11-13T10:11:08.610Z,13.40
2018-11-13T10:13:36.782Z,13.30
2018-11-13T10:18:32.920Z,13.00
2018-11-13T10:21:00.952Z,12.90
2018-11-13T10:23:28.950Z,12.80
2018-11-13T10:25:57.054Z,12.90
2018-11-13T10:28:25.113Z,12.80
2018-11-13T10:30:52.904Z,12.80
2018-11-13T10:33:20.675Z,12.70
2018-11-13T10:35:48.488Z,12.70
2018-11-13T10:38:16.276Z,12.70
2018-11-13T10:40:44.178Z,12.70
2018-11-13T10:43:11.956Z,12.60
2018-11-13T10:45:39.743Z,12.50
2018-11-13T10:48:07.601Z,12.60
2018-11-13T10:50:37.277Z,12.70
2018-11-13T10:53:05.090Z,13.00
2018-11-13T10:55:32.842Z,13.20
2018-11-13T10:58:00.589Z,13.30
2018-11-13T11:00:34.129Z,13.10
2018-11-13T11:03:05.370Z,13.20
2018-11-13T11:05:33.033Z,13.10
2018-11-13T11:10:28.464Z,13.30
2018-11-13T11:12:56.281Z,13.40
2018-11-13T11:15:24.308Z,13.50
2018-11-13T11:17:52.197Z,13.30
2018-11-13T11:20:20.123Z,13.40
2018-11-13T11:22:48.030Z,13.60
2018-11-13T11:25:15.898Z,13.60
2018-11-13T11:30:13.509Z,13.70
2018-11-13T11:32:42.692Z,13.80
2018-11-13T11:35:10.700Z,13.90
2018-11-13T11:37:39.239Z,13.90
2018-11-13T11:45:02.475Z,14.20
2018-11-13T11:47:30.475Z,14.20
2018-11-13T11:49:58.341Z,14.30
2018-11-13T11:52:26.137Z,14.30
2018-11-13T11:54:55.764Z,14.30
2018-11-13T11:59:51.756Z,14.60
2018-11-13T12:04:47.807Z,14.40
2018-11-13T12:07:15.799Z,14.30
2018-11-13T12:09:43.753Z,14.50
2018-11-13T12:12:11.733Z,14.50
2018-11-13T12:14:39.801Z,14.50
2018-11-13T12:17:07.784Z,14.30
2018-11-13T12:19:35.970Z,14.50
2018-11-13T12:22:04.084Z,14.50
2018-11-13T12:24:32.023Z,14.70
2018-11-13T12:27:00.359Z,14.90
2018-11-13T12:29:28.287Z,14.80
2018-11-13T12:31:56.055Z,14.60
2018-11-13T12:36:51.560Z,14.00
2018-11-13T12:41:47.003Z,13.60
2018-11-13T12:46:43.230Z,13.60
2018-11-13T12:49:11.358Z,14.00
2018-11-13T12:52:45.134Z,14.40
2018-11-13T12:55:23.078Z,14.70
2018-11-13T13:00:23.031Z,15.10
2018-11-13T13:02:51.050Z,15.30
2018-11-13T13:07:46.896Z,15.40
2018-11-13T13:10:15.752Z,14.90
2018-11-13T13:12:43.564Z,14.80
2018-11-13T13:15:13.285Z,14.80
2018-11-13T13:17:41.332Z,14.90
2018-11-13T13:22:39.958Z,15.00
2018-11-13T13:27:37.348Z,15.00
2018-11-13T13:30:07.102Z,15.00
2018-11-13T13:32:34.938Z,15.10
2018-11-13T13:35:03.390Z,15.00
2018-11-13T13:37:33.556Z,14.90
2018-11-13T13:40:01.723Z,14.80
2018-11-13T13:42:29.567Z,14.90
2018-11-13T13:44:57.788Z,14.60
2018-11-13T13:47:25.541Z,14.20
2018-11-13T13:49:53.308Z,14.10
2018-11-13T13:52:21.497Z,14.20
2018-11-13T13:54:49.389Z,14.50
2018-11-13T13:57:17.113Z,14.30
2018-11-13T13:59:45.117Z,14.50
2018-11-13T14:02:12.892Z,15.30
2018-11-13T14:04:40.698Z,15.80
2018-11-13T14:07:08.684Z,16.50
2018-11-13T14:09:36.492Z,16.90
2018-11-13T14:12:04.620Z,17.10
2018-11-13T14:14:32.406Z,16.90
2018-11-13T14:19:28.092Z,15.50
2018-11-13T14:24:23.936Z,15.20
2018-11-13T14:29:19.981Z,14.80
2018-11-13T14:31:49.188Z,14.50
2018-11-13T14:34:16.977Z,14.30
2018-11-13T14:36:45.375Z,14.00
2018-11-13T14:39:13.106Z,13.90
2018-11-13T14:41:41.345Z,13.70
2018-11-13T14:44:09.357Z,13.60
2018-11-13T14:46:37.349Z,13.50
2018-11-13T14:49:05.265Z,13.40
2018-11-13T14:54:00.739Z,13.20
2018-11-13T14:56:28.649Z,13.20
2018-11-13T14:58:56.478Z,13.10
2018-11-13T15:01:24.310Z,13.00
2018-11-13T15:03:52.045Z,12.90
2018-11-13T15:06:20.417Z,12.90
2018-11-13T15:11:15.916Z,12.80
2018-11-13T15:16:14.755Z,12.70
2018-11-13T15:18:43.599Z,12.70
2018-11-13T15:21:11.863Z,12.60
2018-11-13T15:23:41.792Z,12.60
2018-11-13T15:26:10.668Z,12.50
2018-11-13T15:28:38.558Z,12.40
2018-11-13T15:31:06.575Z,12.40
2018-11-13T15:36:02.307Z,12.30
2018-11-13T15:38:30.101Z,12.20
2018-11-13T15:40:57.993Z,12.20
2018-11-13T15:45:54.544Z,12.10
2018-11-13T15:58:13.149Z,11.90
2018-11-13T16:00:41.911Z,11.90
2018-11-13T16:03:14.405Z,11.80
2018-11-13T16:05:46.781Z,11.70
2018-11-13T16:08:14.612Z,11.70
2018-11-13T16:10:42.351Z,11.60
2018-11-13T16:13:10.705Z,11.50
2018-11-13T16:15:38.921Z,11.50
2018-11-13T16:18:11.190Z,11.50
2018-11-13T16:20:39.106Z,11.50
2018-11-13T16:28:02.510Z,11.40
2018-11-13T16:30:32.022Z,11.40
2018-11-13T16:32:59.727Z,11.30
2018-11-13T16:35:28.282Z,11.30
2018-11-13T16:37:57.350Z,11.40
2018-11-13T16:42:55.073Z,11.30
2018-11-13T16:45:23.771Z,11.30
2018-11-13T16:47:53.175Z,11.30
2018-11-13T16:57:54.730Z,11.40
2018-11-13T17:00:23.108Z,11.40
2018-11-13T17:02:51.563Z,11.30
2018-11-13T17:05:20.220Z,11.20
2018-11-13T17:07:48.235Z,11.30
2018-11-13T17:10:20.582Z,11.20
2018-11-13T17:12:49.000Z,11.20
2018-11-13T17:17:46.815Z,11.20
2018-11-13T17:22:43.620Z,11.20
2018-11-13T17:25:12.882Z,11.10
2018-11-13T17:32:40.831Z,11.00
2018-11-13T17:35:09.763Z,11.00
2018-11-13T17:37:38.302Z,11.00
2018-11-13T17:40:08.724Z,11.00
2018-11-13T17:42:36.578Z,11.10
2018-11-13T17:47:32.867Z,11.00
2018-11-13T17:50:00.634Z,10.80
2018-11-13T17:52:28.424Z,10.70
2018-11-13T17:54:56.263Z,10.70
2018-11-13T17:57:26.342Z,10.60
2018-11-13T17:59:55.183Z,10.50
2018-11-13T18:02:23.062Z,10.40
2018-11-13T18:04:52.292Z,10.20
2018-11-13T18:09:48.468Z,10.10
2018-11-13T18:12:16.225Z,10.10
2018-11-13T18:14:44.486Z,9.90
2018-11-13T18:17:12.082Z,9.90
2018-11-13T18:19:40.756Z,9.90
2018-11-13T18:24:36.696Z,9.80
2018-11-13T18:27:05.183Z,9.90
2018-11-13T18:29:33.007Z,9.80
2018-11-13T18:32:01.443Z,9.80
2018-11-13T18:34:29.375Z,9.80
2018-11-13T18:37:01.141Z,9.80
2018-11-13T18:39:28.932Z,9.70
2018-11-13T18:44:24.603Z,9.70
2018-11-13T18:46:52.455Z,9.70
2018-11-13T18:49:20.840Z,9.70
2018-11-13T18:51:49.440Z,9.70
2018-11-13T18:54:17.294Z,9.70
2018-11-13T18:56:45.326Z,9.80
2018-11-13T18:59:14.353Z,9.70
2018-11-13T19:01:42.194Z,9.70
2018-11-13T19:04:10.218Z,9.60
2018-11-13T19:06:38.117Z,9.60
2018-11-13T19:09:08.607Z,9.50
2018-11-13T19:11:36.530Z,9.50
2018-11-13T19:14:05.992Z,9.50
2018-11-13T19:16:35.012Z,9.50
2018-11-13T19:21:30.554Z,9.30
2018-11-13T19:23:58.460Z,9.30
2018-11-13T19:28:53.948Z,9.40
2018-11-13T19:31:21.922Z,9.50
2018-11-13T19:33:50.400Z,9.50
2018-11-13T19:36:18.398Z,9.50
2018-11-13T19:38:48.235Z,9.40
2018-11-13T19:41:16.052Z,9.40
2018-11-13T19:43:44.028Z,9.40
2018-11-13T19:46:11.779Z,9.30
2018-11-13T19:48:39.589Z,9.30
2018-11-13T19:51:07.418Z,9.30
2018-11-13T19:53:35.331Z,9.30
2018-11-13T19:56:03.055Z,9.30
2018-11-13T19:58:30.795Z,9.20
2018-11-13T20:03:26.553Z,9.20
2018-11-13T20:05:54.384Z,9.10
2018-11-13T20:08:22.213Z,9.20
2018-11-13T20:10:50.369Z,9.10
2018-11-13T20:13:18.334Z,9.00
2018-11-13T20:18:13.796Z,8.90
2018-11-13T20:20:43.238Z,8.90
2018-11-13T20:23:11.162Z,8.80
2018-11-13T20:28:06.621Z,8.80
2018-11-13T20:30:35.501Z,8.70
2018-11-13T20:33:03.336Z,8.70
2018-11-13T20:37:59.411Z,8.50
2018-11-13T20:40:29.576Z,8.50
2018-11-13T20:42:58.623Z,8.50
2018-11-13T20:45:26.433Z,8.40
2018-11-13T20:50:24.191Z,8.40
2018-11-13T20:52:52.236Z,8.40
2018-11-13T20:55:20.788Z,8.40
2018-11-13T20:57:48.614Z,8.40
2018-11-13T21:00:21.153Z,8.30
2018-11-13T21:02:48.945Z,8.30
2018-11-13T21:05:16.720Z,8.30
2018-11-13T21:07:45.286Z,8.30
2018-11-13T21:10:14.932Z,8.20
2018-11-13T21:12:43.396Z,8.10
2018-11-13T21:15:13.173Z,8.00
2018-11-13T21:17:40.996Z,8.00
2018-11-13T21:20:10.996Z,8.00
2018-11-13T21:22:39.177Z,7.90
2018-11-13T21:25:08.595Z,7.90
2018-11-13T21:27:36.157Z,7.90
2018-11-13T21:30:07.056Z,7.80
2018-11-13T21:35:02.436Z,7.90
2018-11-13T21:37:30.197Z,7.90
2018-11-13T21:42:25.533Z,7.80
2018-11-13T21:44:53.548Z,7.80
2018-11-13T21:47:21.378Z,7.80
2018-11-13T21:49:49.477Z,7.70
2018-11-13T21:52:17.500Z,7.70
2018-11-13T21:54:45.239Z,7.60
2018-11-13T21:59:40.756Z,7.60
2018-11-13T22:02:08.584Z,7.50
2018-11-13T22:04:36.367Z,7.50
2018-11-13T22:07:04.276Z,7.50
2018-11-13T22:11:59.654Z,7.50
2018-11-13T22:14:27.474Z,7.50
2018-11-13T22:16:55.329Z,7.50
2018-11-13T22:19:23.123Z,7.50
2018-11-13T22:21:50.863Z,7.50
2018-11-13T22:24:18.654Z,7.50
2018-11-13T22:26:46.425Z,7.50
2018-11-13T22:29:14.202Z,7.60
2018-11-13T22:31:41.894Z,7.60
2018-11-13T22:34:09.775Z,7.60
2018-11-13T22:36:37.421Z,7.60
2018-11-13T22:41:34.065Z,7.50
2018-11-13T22:44:01.994Z,7.60
2018-11-13T22:56:20.559Z,7.50
2018-11-13T22:58:48.404Z,7.50
2018-11-13T23:01:16.315Z,7.40
2018-11-13T23:03:43.906Z,7.40
2018-11-13T23:06:11.685Z,7.40
2018-11-13T23:08:39.470Z,7.40
2018-11-13T23:11:13.308Z,7.30
2018-11-13T23:13:41.125Z,7.30
2018-11-13T23:18:36.622Z,7.20
2018-11-13T23:21:04.848Z,7.30
2018-11-13T23:23:32.600Z,7.30
2018-11-13T23:26:00.312Z,7.30
2018-11-13T23:30:57.255Z,7.40
2018-11-13T23:33:25.061Z,7.50
2018-11-13T23:35:52.801Z,7.50
2018-11-13T23:38:20.604Z,7.50
2018-11-13T23:40:48.393Z,7.60
2018-11-13T23:43:16.202Z,7.60
2018-11-13T23:45:43.947Z,7.50
2018-11-13T23:50:39.314Z,7.50
2018-11-13T23:55:34.781Z,7.40
